sensor_id;sensor_type;location;lat;lon;timestamp;P1;durP1;ratioP1;P2;durP2;ratioP2
50559;SDS011;36510;52.610;13.468;2022-07-23T00:03:21;12.95;;;7.95;;
50559;SDS011;36510;52.610;13.468;2022-07-23T00:08:12;12.35;;;7.88;;
50559;SDS011;36510;52.610;13.468;2022-07-23T00:13:02;9.65;;;7.88;;
50559;SDS011;36510;52.610;13.468;2022-07-23T00:17:53;10.05;;;7.22;;
50559;SDS011;36510;52.610;13.468;2022-07-23T00:22:47;8.75;;;7.35;;
50559;SDS011;36510;52.610;13.468;2022-07-23T00:27:37;8.18;;;7.07;;
50559;SDS011;36510;52.610;13.468;2022-07-23T00:32:28;11.85;;;7.57;;
50559;SDS011;36510;52.610;13.468;2022-07-23T00:37:18;8.80;;;7.45;;
50559;SDS011;36510;52.610;13.468;2022-07-23T00:42:09;9.35;;;7.90;;
50559;SDS011;36510;52.610;13.468;2022-07-23T00:46:59;10.73;;;8.40;;
50559;SDS011;36510;52.610;13.468;2022-07-23T00:51:50;12.07;;;8.35;;
50559;SDS011;36510;52.610;13.468;2022-07-23T00:56:41;10.93;;;8.77;;
50559;SDS011;36510;52.610;13.468;2022-07-23T01:01:33;9.07;;;8.07;;
50559;SDS011;36510;52.610;13.468;2022-07-23T01:06:24;9.38;;;8.00;;
50559;SDS011;36510;52.610;13.468;2022-07-23T01:11:14;9.45;;;7.80;;
50559;SDS011;36510;52.610;13.468;2022-07-23T01:16:05;11.15;;;8.80;;
50559;SDS011;36510;52.610;13.468;2022-07-23T01:20:56;10.73;;;9.05;;
50559;SDS011;36510;52.610;13.468;2022-07-23T01:25:47;10.15;;;8.85;;
50559;SDS011;36510;52.610;13.468;2022-07-23T01:30:38;10.40;;;8.75;;
50559;SDS011;36510;52.610;13.468;2022-07-23T01:35:29;10.13;;;8.55;;
50559;SDS011;36510;52.610;13.468;2022-07-23T01:40:20;11.10;;;8.75;;
50559;SDS011;36510;52.610;13.468;2022-07-23T01:45:10;9.88;;;7.97;;
50559;SDS011;36510;52.610;13.468;2022-07-23T01:50:01;11.27;;;8.30;;
50559;SDS011;36510;52.610;13.468;2022-07-23T01:54:52;10.23;;;8.13;;
50559;SDS011;36510;52.610;13.468;2022-07-23T01:59:42;9.68;;;8.38;;
50559;SDS011;36510;52.610;13.468;2022-07-23T02:04:33;9.25;;;8.23;;
50559;SDS011;36510;52.610;13.468;2022-07-23T02:09:26;9.98;;;8.18;;
50559;SDS011;36510;52.610;13.468;2022-07-23T02:14:16;9.25;;;7.75;;
50559;SDS011;36510;52.610;13.468;2022-07-23T02:19:07;9.02;;;8.07;;
50559;SDS011;36510;52.610;13.468;2022-07-23T02:23:57;8.98;;;7.88;;
50559;SDS011;36510;52.610;13.468;2022-07-23T02:28:48;11.15;;;7.80;;
50559;SDS011;36510;52.610;13.468;2022-07-23T02:33:38;9.65;;;7.82;;
50559;SDS011;36510;52.610;13.468;2022-07-23T02:38:29;9.77;;;8.10;;
50559;SDS011;36510;52.610;13.468;2022-07-23T02:43:19;9.90;;;7.43;;
50559;SDS011;36510;52.610;13.468;2022-07-23T02:48:10;11.68;;;7.88;;
50559;SDS011;36510;52.610;13.468;2022-07-23T02:53:02;10.13;;;8.15;;
50559;SDS011;36510;52.610;13.468;2022-07-23T02:57:53;11.02;;;8.45;;
50559;SDS011;36510;52.610;13.468;2022-07-23T03:02:43;9.70;;;7.65;;
50559;SDS011;36510;52.610;13.468;2022-07-23T03:07:33;9.57;;;8.10;;
50559;SDS011;36510;52.610;13.468;2022-07-23T03:12:24;9.55;;;8.15;;
50559;SDS011;36510;52.610;13.468;2022-07-23T03:17:15;9.75;;;7.20;;
50559;SDS011;36510;52.610;13.468;2022-07-23T03:22:06;10.82;;;7.43;;
50559;SDS011;36510;52.610;13.468;2022-07-23T03:26:56;10.98;;;7.68;;
50559;SDS011;36510;52.610;13.468;2022-07-23T03:31:47;9.40;;;6.75;;
50559;SDS011;36510;52.610;13.468;2022-07-23T03:36:37;10.15;;;6.63;;
50559;SDS011;36510;52.610;13.468;2022-07-23T03:41:28;9.00;;;6.57;;
50559;SDS011;36510;52.610;13.468;2022-07-23T03:46:18;7.57;;;5.95;;
50559;SDS011;36510;52.610;13.468;2022-07-23T03:51:08;9.43;;;6.15;;
50559;SDS011;36510;52.610;13.468;2022-07-23T03:55:59;8.63;;;5.63;;
50559;SDS011;36510;52.610;13.468;2022-07-23T04:00:50;9.75;;;5.45;;
50559;SDS011;36510;52.610;13.468;2022-07-23T04:05:40;7.03;;;4.85;;
50559;SDS011;36510;52.610;13.468;2022-07-23T04:10:31;8.07;;;4.45;;
50559;SDS011;36510;52.610;13.468;2022-07-23T04:15:21;5.47;;;4.35;;
50559;SDS011;36510;52.610;13.468;2022-07-23T04:20:12;7.10;;;4.53;;
50559;SDS011;36510;52.610;13.468;2022-07-23T04:25:02;7.90;;;4.20;;
50559;SDS011;36510;52.610;13.468;2022-07-23T04:29:53;6.80;;;3.85;;
50559;SDS011;36510;52.610;13.468;2022-07-23T04:34:44;6.93;;;4.20;;
50559;SDS011;36510;52.610;13.468;2022-07-23T04:39:34;7.53;;;3.75;;
50559;SDS011;36510;52.610;13.468;2022-07-23T04:44:25;8.68;;;3.90;;
50559;SDS011;36510;52.610;13.468;2022-07-23T04:49:15;16.23;;;6.45;;
50559;SDS011;36510;52.610;13.468;2022-07-23T04:54:06;8.65;;;4.72;;
50559;SDS011;36510;52.610;13.468;2022-07-23T04:58:56;6.50;;;3.70;;
50559;SDS011;36510;52.610;13.468;2022-07-23T05:03:47;5.65;;;4.28;;
50559;SDS011;36510;52.610;13.468;2022-07-23T05:08:38;6.97;;;3.97;;
50559;SDS011;36510;52.610;13.468;2022-07-23T05:13:28;8.32;;;4.43;;
50559;SDS011;36510;52.610;13.468;2022-07-23T05:18:19;7.95;;;4.45;;
50559;SDS011;36510;52.610;13.468;2022-07-23T05:23:09;9.77;;;4.50;;
50559;SDS011;36510;52.610;13.468;2022-07-23T05:28:00;7.05;;;3.83;;
50559;SDS011;36510;52.610;13.468;2022-07-23T05:32:50;7.30;;;4.30;;
50559;SDS011;36510;52.610;13.468;2022-07-23T05:37:41;5.97;;;3.88;;
50559;SDS011;36510;52.610;13.468;2022-07-23T05:42:31;8.15;;;3.75;;
50559;SDS011;36510;52.610;13.468;2022-07-23T05:47:22;6.13;;;3.78;;
50559;SDS011;36510;52.610;13.468;2022-07-23T05:52:12;7.53;;;4.00;;
50559;SDS011;36510;52.610;13.468;2022-07-23T05:57:03;6.03;;;3.97;;
50559;SDS011;36510;52.610;13.468;2022-07-23T06:01:53;7.55;;;4.15;;
50559;SDS011;36510;52.610;13.468;2022-07-23T06:06:44;6.32;;;3.45;;
50559;SDS011;36510;52.610;13.468;2022-07-23T06:11:34;7.70;;;4.13;;
50559;SDS011;36510;52.610;13.468;2022-07-23T06:16:25;6.40;;;4.13;;
50559;SDS011;36510;52.610;13.468;2022-07-23T06:21:15;6.53;;;4.55;;
50559;SDS011;36510;52.610;13.468;2022-07-23T06:26:05;7.05;;;4.40;;
50559;SDS011;36510;52.610;13.468;2022-07-23T06:30:56;6.85;;;4.53;;
50559;SDS011;36510;52.610;13.468;2022-07-23T06:35:46;9.25;;;4.32;;
50559;SDS011;36510;52.610;13.468;2022-07-23T06:40:37;10.57;;;4.45;;
50559;SDS011;36510;52.610;13.468;2022-07-23T06:45:27;8.55;;;4.55;;
50559;SDS011;36510;52.610;13.468;2022-07-23T06:50:18;9.50;;;5.18;;
50559;SDS011;36510;52.610;13.468;2022-07-23T06:55:09;8.65;;;4.60;;
50559;SDS011;36510;52.610;13.468;2022-07-23T06:59:59;8.18;;;4.60;;
50559;SDS011;36510;52.610;13.468;2022-07-23T07:04:50;10.90;;;4.70;;
50559;SDS011;36510;52.610;13.468;2022-07-23T07:09:40;9.70;;;5.57;;
50559;SDS011;36510;52.610;13.468;2022-07-23T07:14:31;8.05;;;5.43;;
50559;SDS011;36510;52.610;13.468;2022-07-23T07:19:21;7.80;;;5.25;;
50559;SDS011;36510;52.610;13.468;2022-07-23T07:24:11;7.25;;;5.15;;
50559;SDS011;36510;52.610;13.468;2022-07-23T07:29:02;7.60;;;5.03;;
50559;SDS011;36510;52.610;13.468;2022-07-23T07:33:52;7.93;;;4.50;;
50559;SDS011;36510;52.610;13.468;2022-07-23T07:38:43;11.90;;;4.80;;
50559;SDS011;36510;52.610;13.468;2022-07-23T07:43:33;11.95;;;5.40;;
50559;SDS011;36510;52.610;13.468;2022-07-23T07:48:24;8.40;;;4.53;;
50559;SDS011;36510;52.610;13.468;2022-07-23T07:53:14;7.72;;;4.20;;
50559;SDS011;36510;52.610;13.468;2022-07-23T07:58:05;8.63;;;3.92;;
50559;SDS011;36510;52.610;13.468;2022-07-23T08:02:55;9.30;;;3.90;;
50559;SDS011;36510;52.610;13.468;2022-07-23T08:07:46;5.80;;;4.63;;
50559;SDS011;36510;52.610;13.468;2022-07-23T08:12:41;7.38;;;4.45;;
50559;SDS011;36510;52.610;13.468;2022-07-23T08:17:34;5.65;;;4.15;;
50559;SDS011;36510;52.610;13.468;2022-07-23T08:22:25;6.93;;;4.20;;
50559;SDS011;36510;52.610;13.468;2022-07-23T08:27:15;5.57;;;3.60;;
50559;SDS011;36510;52.610;13.468;2022-07-23T08:32:06;5.95;;;3.38;;
50559;SDS011;36510;52.610;13.468;2022-07-23T08:36:56;6.07;;;3.00;;
50559;SDS011;36510;52.610;13.468;2022-07-23T08:41:47;8.82;;;3.30;;
50559;SDS011;36510;52.610;13.468;2022-07-23T08:46:38;6.28;;;3.38;;
50559;SDS011;36510;52.610;13.468;2022-07-23T08:51:29;6.75;;;3.33;;
50559;SDS011;36510;52.610;13.468;2022-07-23T08:56:20;7.90;;;3.75;;
50559;SDS011;36510;52.610;13.468;2022-07-23T09:01:10;7.40;;;3.60;;
50559;SDS011;36510;52.610;13.468;2022-07-23T09:06:01;7.70;;;3.17;;
50559;SDS011;36510;52.610;13.468;2022-07-23T09:10:57;6.70;;;3.35;;
50559;SDS011;36510;52.610;13.468;2022-07-23T09:15:49;7.10;;;2.92;;
50559;SDS011;36510;52.610;13.468;2022-07-23T09:20:41;5.95;;;2.92;;
50559;SDS011;36510;52.610;13.468;2022-07-23T09:25:33;7.13;;;3.30;;
50559;SDS011;36510;52.610;13.468;2022-07-23T09:30:24;6.60;;;2.78;;
50559;SDS011;36510;52.610;13.468;2022-07-23T09:35:19;5.20;;;3.17;;
50559;SDS011;36510;52.610;13.468;2022-07-23T09:40:10;4.70;;;2.78;;
50559;SDS011;36510;52.610;13.468;2022-07-23T09:45:03;6.10;;;2.97;;
50559;SDS011;36510;52.610;13.468;2022-07-23T09:49:57;7.22;;;3.15;;
50559;SDS011;36510;52.610;13.468;2022-07-23T09:55:02;5.68;;;3.33;;
50559;SDS011;36510;52.610;13.468;2022-07-23T09:59:56;7.82;;;2.72;;
50559;SDS011;36510;52.610;13.468;2022-07-23T10:04:49;4.60;;;3.00;;
50559;SDS011;36510;52.610;13.468;2022-07-23T10:09:43;5.03;;;2.88;;
50559;SDS011;36510;52.610;13.468;2022-07-23T10:14:38;4.43;;;2.63;;
50559;SDS011;36510;52.610;13.468;2022-07-23T10:19:29;6.38;;;3.38;;
50559;SDS011;36510;52.610;13.468;2022-07-23T10:40:17;3.83;;;2.60;;
50559;SDS011;36510;52.610;13.468;2022-07-23T10:45:42;4.43;;;2.63;;
50559;SDS011;36510;52.610;13.468;2022-07-23T10:50:27;5.43;;;2.60;;
50559;SDS011;36510;52.610;13.468;2022-07-23T11:00:16;4.70;;;2.13;;
50559;SDS011;36510;52.610;13.468;2022-07-23T11:05:14;3.00;;;2.22;;
50559;SDS011;36510;52.610;13.468;2022-07-23T11:10:06;5.63;;;2.30;;
50559;SDS011;36510;52.610;13.468;2022-07-23T11:15:22;6.70;;;2.63;;
50559;SDS011;36510;52.610;13.468;2022-07-23T11:20:13;6.13;;;2.75;;
50559;SDS011;36510;52.610;13.468;2022-07-23T11:25:06;5.80;;;2.40;;
50559;SDS011;36510;52.610;13.468;2022-07-23T11:29:56;6.35;;;2.72;;
50559;SDS011;36510;52.610;13.468;2022-07-23T11:34:48;5.50;;;2.47;;
50559;SDS011;36510;52.610;13.468;2022-07-23T11:39:40;10.32;;;2.75;;
50559;SDS011;36510;52.610;13.468;2022-07-23T11:44:31;7.35;;;3.00;;
50559;SDS011;36510;52.610;13.468;2022-07-23T11:49:24;5.55;;;2.78;;
50559;SDS011;36510;52.610;13.468;2022-07-23T11:54:15;4.68;;;2.92;;
50559;SDS011;36510;52.610;13.468;2022-07-23T11:59:05;11.30;;;4.28;;
50559;SDS011;36510;52.610;13.468;2022-07-23T12:03:56;5.90;;;2.95;;
50559;SDS011;36510;52.610;13.468;2022-07-23T12:08:47;5.05;;;3.25;;
50559;SDS011;36510;52.610;13.468;2022-07-23T12:13:37;4.95;;;2.53;;
50559;SDS011;36510;52.610;13.468;2022-07-23T12:18:28;4.30;;;2.55;;
50559;SDS011;36510;52.610;13.468;2022-07-23T12:23:19;4.53;;;2.38;;
50559;SDS011;36510;52.610;13.468;2022-07-23T12:28:21;4.88;;;2.40;;
50559;SDS011;36510;52.610;13.468;2022-07-23T12:38:21;4.30;;;2.38;;
50559;SDS011;36510;52.610;13.468;2022-07-23T12:43:23;4.90;;;2.92;;
50559;SDS011;36510;52.610;13.468;2022-07-23T12:48:17;4.50;;;2.33;;
50559;SDS011;36510;52.610;13.468;2022-07-23T12:53:20;1.95;;;1.40;;
50559;SDS011;36510;52.610;13.468;2022-07-23T12:58:21;1.33;;;0.85;;
50559;SDS011;36510;52.610;13.468;2022-07-23T13:03:20;1.38;;;0.90;;
50559;SDS011;36510;52.610;13.468;2022-07-23T13:08:14;2.50;;;0.70;;
50559;SDS011;36510;52.610;13.468;2022-07-23T13:13:09;0.93;;;0.68;;
50559;SDS011;36510;52.610;13.468;2022-07-23T13:18:00;1.77;;;1.00;;
50559;SDS011;36510;52.610;13.468;2022-07-23T13:22:54;1.60;;;0.75;;
50559;SDS011;36510;52.610;13.468;2022-07-23T13:27:45;1.00;;;0.75;;
50559;SDS011;36510;52.610;13.468;2022-07-23T13:32:35;2.22;;;1.20;;
50559;SDS011;36510;52.610;13.468;2022-07-23T13:37:26;2.97;;;1.08;;
50559;SDS011;36510;52.610;13.468;2022-07-23T13:42:16;1.48;;;1.02;;
50559;SDS011;36510;52.610;13.468;2022-07-23T13:47:07;1.20;;;0.70;;
50559;SDS011;36510;52.610;13.468;2022-07-23T13:51:57;1.48;;;1.00;;
50559;SDS011;36510;52.610;13.468;2022-07-23T13:56:48;1.02;;;0.75;;
50559;SDS011;36510;52.610;13.468;2022-07-23T14:01:38;1.00;;;0.70;;
50559;SDS011;36510;52.610;13.468;2022-07-23T14:06:29;0.63;;;0.60;;
50559;SDS011;36510;52.610;13.468;2022-07-23T14:11:19;0.90;;;0.70;;
50559;SDS011;36510;52.610;13.468;2022-07-23T14:16:10;1.27;;;0.75;;
50559;SDS011;36510;52.610;13.468;2022-07-23T14:21:00;1.42;;;0.80;;
50559;SDS011;36510;52.610;13.468;2022-07-23T14:25:51;0.98;;;0.63;;
50559;SDS011;36510;52.610;13.468;2022-07-23T14:30:42;1.52;;;1.17;;
50559;SDS011;36510;52.610;13.468;2022-07-23T14:35:33;2.38;;;1.35;;
50559;SDS011;36510;52.610;13.468;2022-07-23T14:40:30;0.52;;;0.50;;
50559;SDS011;36510;52.610;13.468;2022-07-23T14:45:20;0.88;;;0.50;;
50559;SDS011;36510;52.610;13.468;2022-07-23T14:50:14;0.50;;;0.50;;
50559;SDS011;36510;52.610;13.468;2022-07-23T14:55:11;1.77;;;0.80;;
50559;SDS011;36510;52.610;13.468;2022-07-23T15:00:03;0.88;;;0.65;;
50559;SDS011;36510;52.610;13.468;2022-07-23T15:04:55;1.35;;;0.65;;
50559;SDS011;36510;52.610;13.468;2022-07-23T15:09:50;1.00;;;0.70;;
50559;SDS011;36510;52.610;13.468;2022-07-23T15:14:41;1.27;;;0.52;;
50559;SDS011;36510;52.610;13.468;2022-07-23T15:19:32;1.00;;;0.65;;
50559;SDS011;36510;52.610;13.468;2022-07-23T15:24:25;2.65;;;0.73;;
50559;SDS011;36510;52.610;13.468;2022-07-23T15:29:19;0.47;;;0.40;;
50559;SDS011;36510;52.610;13.468;2022-07-23T15:34:10;0.40;;;0.30;;
50559;SDS011;36510;52.610;13.468;2022-07-23T15:39:00;0.93;;;0.75;;
50559;SDS011;36510;52.610;13.468;2022-07-23T15:43:51;1.10;;;0.55;;
50559;SDS011;36510;52.610;13.468;2022-07-23T15:48:44;1.00;;;0.60;;
50559;SDS011;36510;52.610;13.468;2022-07-23T15:53:35;0.32;;;0.32;;
50559;SDS011;36510;52.610;13.468;2022-07-23T15:58:26;1.73;;;0.57;;
50559;SDS011;36510;52.610;13.468;2022-07-23T16:03:21;0.40;;;0.40;;
50559;SDS011;36510;52.610;13.468;2022-07-23T16:08:12;0.57;;;0.50;;
50559;SDS011;36510;52.610;13.468;2022-07-23T16:13:08;0.50;;;0.50;;
50559;SDS011;36510;52.610;13.468;2022-07-23T16:18:00;0.50;;;0.40;;
50559;SDS011;36510;52.610;13.468;2022-07-23T16:22:51;2.50;;;1.60;;
50559;SDS011;36510;52.610;13.468;2022-07-23T16:27:42;4.25;;;2.53;;
50559;SDS011;36510;52.610;13.468;2022-07-23T16:32:32;56.10;;;30.77;;
50559;SDS011;36510;52.610;13.468;2022-07-23T16:37:23;17.25;;;6.82;;
50559;SDS011;36510;52.610;13.468;2022-07-23T16:42:14;3.28;;;2.08;;
50559;SDS011;36510;52.610;13.468;2022-07-23T16:47:06;2.78;;;1.77;;
50559;SDS011;36510;52.610;13.468;2022-07-23T16:51:57;1.70;;;1.10;;
50559;SDS011;36510;52.610;13.468;2022-07-23T16:56:48;1.77;;;0.93;;
50559;SDS011;36510;52.610;13.468;2022-07-23T17:01:38;1.15;;;0.73;;
50559;SDS011;36510;52.610;13.468;2022-07-23T17:06:29;0.60;;;0.50;;
50559;SDS011;36510;52.610;13.468;2022-07-23T17:11:19;1.58;;;0.60;;
50559;SDS011;36510;52.610;13.468;2022-07-23T17:16:10;0.50;;;0.40;;
50559;SDS011;36510;52.610;13.468;2022-07-23T17:21:03;2.05;;;1.00;;
50559;SDS011;36510;52.610;13.468;2022-07-23T17:25:53;1.00;;;0.75;;
50559;SDS011;36510;52.610;13.468;2022-07-23T17:30:44;0.60;;;0.32;;
50559;SDS011;36510;52.610;13.468;2022-07-23T17:35:35;0.65;;;0.40;;
50559;SDS011;36510;52.610;13.468;2022-07-23T17:40:25;0.52;;;0.50;;
50559;SDS011;36510;52.610;13.468;2022-07-23T17:45:16;0.57;;;0.47;;
50559;SDS011;36510;52.610;13.468;2022-07-23T17:50:09;2.60;;;0.60;;
50559;SDS011;36510;52.610;13.468;2022-07-23T17:55:03;1.20;;;0.80;;
50559;SDS011;36510;52.610;13.468;2022-07-23T17:59:56;0.40;;;0.40;;
50559;SDS011;36510;52.610;13.468;2022-07-23T18:04:50;0.80;;;0.50;;
50559;SDS011;36510;52.610;13.468;2022-07-23T18:09:40;0.68;;;0.40;;
50559;SDS011;36510;52.610;13.468;2022-07-23T18:14:32;0.50;;;0.43;;
50559;SDS011;36510;52.610;13.468;2022-07-23T18:19:22;0.40;;;0.40;;
50559;SDS011;36510;52.610;13.468;2022-07-23T18:24:13;0.95;;;0.70;;
50559;SDS011;36510;52.610;13.468;2022-07-23T18:29:03;2.05;;;0.85;;
50559;SDS011;36510;52.610;13.468;2022-07-23T18:33:54;0.45;;;0.45;;
50559;SDS011;36510;52.610;13.468;2022-07-23T18:38:44;0.85;;;0.50;;
50559;SDS011;36510;52.610;13.468;2022-07-23T18:43:35;0.50;;;0.50;;
50559;SDS011;36510;52.610;13.468;2022-07-23T18:48:27;0.57;;;0.50;;
50559;SDS011;36510;52.610;13.468;2022-07-23T18:53:17;3.67;;;0.70;;
50559;SDS011;36510;52.610;13.468;2022-07-23T18:58:11;1.02;;;0.95;;
50559;SDS011;36510;52.610;13.468;2022-07-23T19:03:09;0.77;;;0.70;;
50559;SDS011;36510;52.610;13.468;2022-07-23T19:08:00;0.77;;;0.50;;
50559;SDS011;36510;52.610;13.468;2022-07-23T19:12:50;0.65;;;0.40;;
50559;SDS011;36510;52.610;13.468;2022-07-23T19:17:41;0.80;;;0.57;;
50559;SDS011;36510;52.610;13.468;2022-07-23T19:22:32;0.90;;;0.55;;
50559;SDS011;36510;52.610;13.468;2022-07-23T19:27:22;0.70;;;0.40;;
50559;SDS011;36510;52.610;13.468;2022-07-23T19:32:19;1.30;;;0.50;;
50559;SDS011;36510;52.610;13.468;2022-07-23T19:37:10;2.38;;;0.68;;
50559;SDS011;36510;52.610;13.468;2022-07-23T19:42:04;0.68;;;0.50;;
50559;SDS011;36510;52.610;13.468;2022-07-23T19:46:55;0.52;;;0.40;;
50559;SDS011;36510;52.610;13.468;2022-07-23T19:51:46;2.88;;;0.80;;
50559;SDS011;36510;52.610;13.468;2022-07-23T19:56:36;2.28;;;1.13;;
50559;SDS011;36510;52.610;13.468;2022-07-23T20:01:27;1.85;;;0.98;;
50559;SDS011;36510;52.610;13.468;2022-07-23T20:06:25;2.20;;;1.25;;
50559;SDS011;36510;52.610;13.468;2022-07-23T20:11:16;1.30;;;0.90;;
50559;SDS011;36510;52.610;13.468;2022-07-23T20:16:10;2.75;;;1.45;;
50559;SDS011;36510;52.610;13.468;2022-07-23T20:21:00;1.63;;;1.08;;
50559;SDS011;36510;52.610;13.468;2022-07-23T20:25:52;2.95;;;1.20;;
50559;SDS011;36510;52.610;13.468;2022-07-23T20:30:43;1.80;;;0.90;;
50559;SDS011;36510;52.610;13.468;2022-07-23T20:35:36;1.55;;;1.27;;
50559;SDS011;36510;52.610;13.468;2022-07-23T20:40:29;1.63;;;1.13;;
50559;SDS011;36510;52.610;13.468;2022-07-23T20:45:20;1.50;;;0.98;;
50559;SDS011;36510;52.610;13.468;2022-07-23T20:50:11;1.95;;;1.40;;
50559;SDS011;36510;52.610;13.468;2022-07-23T20:55:07;2.05;;;1.20;;
50559;SDS011;36510;52.610;13.468;2022-07-23T21:00:05;2.30;;;1.27;;
50559;SDS011;36510;52.610;13.468;2022-07-23T21:04:57;2.40;;;1.30;;
50559;SDS011;36510;52.610;13.468;2022-07-23T21:09:48;0.82;;;0.70;;
50559;SDS011;36510;52.610;13.468;2022-07-23T21:14:38;2.30;;;0.98;;
50559;SDS011;36510;52.610;13.468;2022-07-23T21:19:29;1.52;;;1.02;;
50559;SDS011;36510;52.610;13.468;2022-07-23T21:24:19;2.00;;;0.90;;
50559;SDS011;36510;52.610;13.468;2022-07-23T21:29:10;1.98;;;0.73;;
50559;SDS011;36510;52.610;13.468;2022-07-23T21:34:00;1.65;;;0.70;;
50559;SDS011;36510;52.610;13.468;2022-07-23T21:38:51;1.27;;;0.68;;
50559;SDS011;36510;52.610;13.468;2022-07-23T21:43:41;1.45;;;0.47;;
50559;SDS011;36510;52.610;13.468;2022-07-23T21:48:32;1.25;;;0.85;;
50559;SDS011;36510;52.610;13.468;2022-07-23T21:53:22;1.17;;;0.70;;
50559;SDS011;36510;52.610;13.468;2022-07-23T21:58:13;1.08;;;0.70;;
50559;SDS011;36510;52.610;13.468;2022-07-23T22:03:03;2.05;;;1.00;;
50559;SDS011;36510;52.610;13.468;2022-07-23T22:07:55;1.48;;;0.75;;
50559;SDS011;36510;52.610;13.468;2022-07-23T22:12:46;1.23;;;1.00;;
50559;SDS011;36510;52.610;13.468;2022-07-23T22:17:38;1.30;;;0.90;;
50559;SDS011;36510;52.610;13.468;2022-07-23T22:22:29;2.67;;;1.27;;
50559;SDS011;36510;52.610;13.468;2022-07-23T22:27:19;1.25;;;0.85;;
50559;SDS011;36510;52.610;13.468;2022-07-23T22:32:10;2.92;;;1.05;;
50559;SDS011;36510;52.610;13.468;2022-07-23T22:37:00;4.25;;;0.82;;
50559;SDS011;36510;52.610;13.468;2022-07-23T22:41:51;2.58;;;1.00;;
50559;SDS011;36510;52.610;13.468;2022-07-23T22:46:41;2.75;;;1.08;;
50559;SDS011;36510;52.610;13.468;2022-07-23T22:51:32;1.73;;;1.15;;
50559;SDS011;36510;52.610;13.468;2022-07-23T22:56:22;2.05;;;1.27;;
50559;SDS011;36510;52.610;13.468;2022-07-23T23:01:13;2.03;;;1.33;;
50559;SDS011;36510;52.610;13.468;2022-07-23T23:06:03;2.33;;;1.40;;
50559;SDS011;36510;52.610;13.468;2022-07-23T23:10:54;1.85;;;1.17;;
50559;SDS011;36510;52.610;13.468;2022-07-23T23:15:45;10.82;;;2.20;;
50559;SDS011;36510;52.610;13.468;2022-07-23T23:20:35;3.45;;;1.83;;
50559;SDS011;36510;52.610;13.468;2022-07-23T23:25:26;2.13;;;1.50;;
50559;SDS011;36510;52.610;13.468;2022-07-23T23:30:16;1.92;;;1.38;;
50559;SDS011;36510;52.610;13.468;2022-07-23T23:35:07;2.53;;;1.58;;
50559;SDS011;36510;52.610;13.468;2022-07-23T23:39:58;2.92;;;1.80;;
50559;SDS011;36510;52.610;13.468;2022-07-23T23:44:48;2.53;;;1.60;;
50559;SDS011;36510;52.610;13.468;2022-07-23T23:49:38;2.75;;;1.85;;
50559;SDS011;36510;52.610;13.468;2022-07-23T23:54:29;2.28;;;1.60;;
50559;SDS011;36510;52.610;13.468;2022-07-23T23:59:19;2.65;;;1.42;;
